x

Cape Elizabeth- 45nm Nw Of Aberdeen, Wa (46041) Wave Buoy

10:50pm - Tue 30th Aug 2016 All times are PDT. -7 hours from GMT.

  • Sig Wave height 6.2ft
  • Swell Direction
  • Peak Period 7s
  • Average Period 5s
  • Wind
    20mph, 22mph gusts
  • Sea Temp 58°f
  • 空気 Temp 58°f
  • Sea Pressure 1013.5mb
  • Cape Elizabeth- 45nm Nw Of Aberdeen, Wa
  • Cape Elizabeth- 45nm Nw Of Aberdeen, Wa

More Historic Weather Station data

Upgrade to MSW Pro to gain access to the past 30 days of data for over 8000 Wavebouys and Weather Stations around the globe.

Join Pro

Comparision Forecast

View Surf forecast
   
Tue 08/30 10:50pm 6ft 7s 5s 20 22 mph 1013.5mb 58f 58f
9:50pm 5.5ft 7s 5s 18 22 mph 1013.9mb 59f 58f
8:50pm 5.5ft 7s 5s 18 22 mph 1013.9mb 59f 58f
7:50pm 5ft 7s 5s 16 20 mph 1014mb 59f 58f
6:50pm 5ft 6s 5s 18 22 mph 1014.4mb 59f 58f
5:50pm 5ft 6s 5s 16 18 mph 1014.8mb 59f 58f
4:50pm 5ft 6s 5s 18 20 mph 1015mb 59f 58f
3:50pm 5ft 6s 5s 18 22 mph 1015mb 59f 58f
2:50pm 5ft 6s 5s 20 25 mph 1015mb 59f 58f
1:50pm 5ft 6s 5s 18 22 mph 1015.3mb 59f 58f
12:50pm 6ft 6s 5s 20 22 mph 1015.2mb 59f 58f
11:50am 5ft 6s 5s 18 22 mph 1015.4mb 59f 58f
10:50am 5ft 6s 5s 18 20 mph 1015.6mb 58f 57f
9:50am 5ft 6s 5s 20 25 mph 1015.2mb 58f 57f
8:50am 5ft 5s 5s 20 22 mph 1015.7mb 59f 57f
7:50am 5ft 6s 5s 18 20 mph 1015.9mb 59f 57f
6:50am 5ft 6s 5s 18 20 mph 1015.9mb 59f 57f
5:50am 4.5ft 6s 5s 16 20 mph 1015.8mb 59f 58f
4:50am 4.5ft 6s 5s 18 20 mph 1015.9mb 58f 58f
3:50am 4ft 6s 5s 13 16 mph 1016.2mb 58f 58f
2:50am 4.5ft 9s 5s 16 18 mph 1016.2mb 58f 57f
1:50am 4ft 6s 5s 16 18 mph 1016.2mb 59f 57f
12:50am 4.5ft 6s 5s 16 18 mph 1016.1mb 59f 57f
Mon 08/29 11:50pm 4.5ft 6s 6s 16 18 mph 1016.1mb 59f 57f
10:50pm 5ft 9s 6s 16 20 mph 1016.1mb 59f 57f
9:50pm 5ft 10s 6s 18 20 mph 1016.3mb 59f 57f
8:50pm 4.5ft 9s 6s 13 16 mph 1016.2mb 59f 59f
7:50pm 5ft 9s 6s 11 13 mph 1016.3mb 59f 58f
6:50pm 5ft 8s 6s 11 13 mph 1016.3mb 59f 59f
5:50pm 4.5ft 8s 6s 11 13 mph 1016.7mb 59f 59f
4:50pm 4.5ft 8s 5s 11 13 mph 1017mb 59f 59f
3:50pm 4ft 9s 5s 13 16 mph 1016.7mb 59f 58f
2:50pm 3.5ft 8s  -  13 16 mph 1016.9mb 59f 58f
1:50pm 3.5ft 13s 5s 13 16 mph 1017mb 59f 58f
12:50pm 3.5ft 13s 6s 16 18 mph 1016.8mb 59f 58f
11:50am 3ft 14s 5s 13 16 mph 1017mb 58f 58f
10:50am 3ft 8s 5s 13 16 mph 1017.2mb 59f 57f
9:50am 3ft 13s 5s 13 18 mph 1017.2mb 59f 57f
8:50am 3ft 14s 6s 13 16 mph 1017.6mb 59f 57f
7:50am 3ft 8s 6s 11 13 mph 1017.7mb 59f 57f
6:50am 2.5ft 14s 6s 9 11 mph 1017.4mb 59f 57f
5:50am 2.5ft 14s 7s 11
mph
1017.4mb 59f 57f
4:50am 2.5ft 8s 7s 9
mph
1017.7mb 59f 57f
3:50am 2.5ft 8s 7s 7 9 mph 1017.8mb 58f 57f
2:50am 2.5ft 8s 7s 7 9 mph 1017.7mb 58f 57f
1:50am 2.5ft 12s 7s 7 9 mph 1017.8mb 58f 57f
12:50am 2.5ft 15s 7s 7
mph
1017.8mb 58f 57f
Sun 08/28 11:50pm 2.5ft 14s 7s 4 7 mph 1017.6mb 58f 57f
10:50pm 2.5ft 8s 7s 4
mph
1017.7mb 59f 58f
9:50pm 3ft 8s 7s 4
mph
1017.7mb 59f 58f
8:50pm 3ft 8s 7s 2 4 mph 1017.7mb 59f 58f
7:50pm 3ft 8s 7s 2
mph
1018mb 59f 58f
6:50pm 3ft 8s 7s 2 4 mph 1018mb 59f 59f
5:50pm 3ft 8s 7s 4
mph
1018.2mb 59f 59f
4:50pm 3ft 9s 7s 4 7 mph 1018.7mb 59f 59f
3:50pm 3ft 8s 7s 7
mph
1018.7mb 59f 59f
2:50pm 3.5ft 8s 7s 7 9 mph 1019mb 59f 58f
1:50pm 3.5ft 8s 7s 7 9 mph 1018.8mb 59f 58f
12:50pm 3.5ft 8s 7s 7
mph
1018.8mb 58f 58f
11:50am 3.5ft 8s 6s 4 7 mph 1018.7mb 58f 58f
10:50am 3.5ft 8s 6s 9
mph
1018.1mb 58f 58f
9:50am 4.5ft 8s 7s 7
mph
1018.1mb 58f 58f
8:50am 4ft 8s 6s 4 7 mph 1017.7mb 58f 58f
7:50am 4.5ft 8s 7s 4 7 mph 1017.5mb 58f 58f
6:50am 4.5ft 8s 7s 4
mph
1017.5mb 58f 58f
5:50am 4.5ft 8s 6s 4
mph
1017.3mb 58f 58f
4:50am 4ft 8s 6s 2 4 mph 1017.4mb 58f 59f
3:50am 4ft 8s 6s 2
mph
1017.2mb 58f 59f
2:50am 4.5ft 8s 6s 2 4 mph 1017.2mb 58f 59f
1:50am 4.5ft 7s 6s 2 4 mph 1016.9mb 58f 59f
12:50am 4.5ft 8s 6s 2 4 mph 1016.7mb 58f 59f
Sat 08/27 11:50pm 5ft 8s 6s 4 7 mph 1016.4mb 58f 59f
10:50pm 6ft 8s 6s 4 7 mph 1016.1mb 58f 59f
9:50pm 6ft 8s 6s 4 7 mph 1016mb 58f 59f
8:50pm 6ft 8s 6s 4
mph
1015.8mb 58f 59f
7:50pm 6ft 8s 6s 7 9 mph 1015.6mb 58f 59f
6:50pm 7ft 8s 6s 9 11 mph 1015.4mb 58f 59f
5:50pm 6.5ft 8s 6s 7 9 mph 1015.3mb 58f 60f
4:50pm 6ft 8s 6s 9 11 mph 1015.1mb 58f 59f
3:50pm 6ft 8s 6s 9 11 mph 1015.1mb 58f 59f
2:50pm 6ft 8s 6s 9 13 mph 1014.8mb 58f 59f
1:50pm 6ft 8s 6s 11 13 mph 1014.6mb 58f 59f
12:50pm 7ft 9s 6s 7 9 mph 1014.1mb 58f 59f
11:50am 7.5ft 8s 7s 7 9 mph 1013.5mb 57f 59f
10:50am 8ft 9s 7s 7 9 mph 1013.1mb 57f 58f
9:50am 8.5ft 9s 7s 9 11 mph 1012.8mb 57f 58f
8:50am 8ft 9s 7s 9 11 mph 1012.5mb 57f 57f
7:50am 8.5ft 9s 7s 9 11 mph 1012.3mb 57f 57f
6:50am 7ft 9s 7s 11 13 mph 1011.9mb 57f 57f